createdAt,value
2018-01-28T00:01:37.506Z,101864.55
2018-01-28T00:04:04.086Z,101871.98
2018-01-28T00:06:30.316Z,101871.53
2018-01-28T00:08:56.508Z,101861.95
2018-01-28T00:11:22.720Z,101854.96
2018-01-28T00:13:48.935Z,101865.02
2018-01-28T00:16:15.436Z,101849.73
2018-01-28T00:18:42.087Z,101854.08
2018-01-28T00:21:08.339Z,101844.47
2018-01-28T00:23:34.502Z,101853.20
2018-01-28T00:26:01.010Z,101861.10
2018-01-28T00:28:27.493Z,101852.78
2018-01-28T00:30:53.663Z,101851.92
2018-01-28T00:33:26.174Z,101858.91
2018-01-28T00:35:52.335Z,101857.14
2018-01-28T00:38:18.564Z,101860.64
2018-01-28T00:40:44.846Z,101849.73
2018-01-28T00:43:11.035Z,101842.31
2018-01-28T00:45:37.210Z,101848.43
2018-01-28T00:48:03.440Z,101858.00
2018-01-28T00:50:30.005Z,101867.62
2018-01-28T00:52:56.218Z,101869.81
2018-01-28T00:55:22.760Z,101868.05
2018-01-28T00:57:49.016Z,101857.59
2018-01-28T01:00:15.211Z,101850.61
2018-01-28T01:02:41.752Z,101860.64
2018-01-28T01:05:08.189Z,101870.67
2018-01-28T01:07:34.409Z,101865.44
2018-01-28T01:10:00.700Z,101871.13
2018-01-28T01:12:26.903Z,101875.05
2018-01-28T01:14:53.132Z,101868.05
2018-01-28T01:17:19.411Z,101859.76
2018-01-28T01:19:45.659Z,101861.97
2018-01-28T01:22:11.843Z,101859.33
2018-01-28T01:24:38.319Z,101869.81
2018-01-28T01:27:10.801Z,101873.30
2018-01-28T01:29:37.101Z,101886.38
2018-01-28T01:32:03.346Z,101907.80
2018-01-28T01:34:29.571Z,101914.33
2018-01-28T01:36:55.874Z,101906.02
2018-01-28T01:39:22.099Z,101902.11
2018-01-28T01:41:48.579Z,101892.05
2018-01-28T01:44:15.138Z,101906.02
2018-01-28T01:46:41.340Z,101904.27
2018-01-28T01:49:07.657Z,101899.03
2018-01-28T01:51:33.888Z,101896.43
2018-01-28T01:54:00.112Z,101899.03
2018-01-28T01:56:26.709Z,101912.58
2018-01-28T01:58:52.946Z,101903.39
2018-01-28T02:01:19.149Z,101880.70
2018-01-28T02:03:45.362Z,101894.23
2018-01-28T02:06:11.546Z,101892.05
2018-01-28T02:08:38.114Z,101888.55
2018-01-28T02:11:04.394Z,101890.29
2018-01-28T02:13:30.605Z,101899.90
2018-01-28T02:15:56.826Z,101902.08
2018-01-28T02:18:23.750Z,101898.59
2018-01-28T02:20:50.096Z,101919.11
2018-01-28T02:23:16.314Z,101910.83
2018-01-28T02:25:43.486Z,101921.30
2018-01-28T02:28:09.734Z,101922.58
2018-01-28T02:30:36.316Z,101899.45
2018-01-28T02:33:02.546Z,101899.00
2018-01-28T02:35:28.789Z,101910.36
2018-01-28T02:37:55.615Z,101910.81
2018-01-28T02:40:21.835Z,101914.73
2018-01-28T02:42:48.072Z,101909.92
2018-01-28T02:45:14.291Z,101910.80
2018-01-28T02:47:40.492Z,101916.48
2018-01-28T02:50:07.068Z,101919.09
2018-01-28T02:52:33.306Z,101926.10
2018-01-28T02:54:59.564Z,101924.78
2018-01-28T02:57:25.786Z,101926.95
2018-01-28T02:59:52.046Z,101935.23
2018-01-28T03:02:18.284Z,101926.50
2018-01-28T03:04:44.555Z,101927.40
2018-01-28T03:07:10.738Z,101924.75
2018-01-28T03:09:36.971Z,101932.63
2018-01-28T03:12:03.531Z,101940.91
2018-01-28T03:14:29.711Z,101929.56
2018-01-28T03:16:55.956Z,101926.05
2018-01-28T03:19:22.519Z,101931.73
2018-01-28T03:21:48.739Z,101937.86
2018-01-28T03:24:15.036Z,101934.78
2018-01-28T03:26:41.273Z,101939.14
2018-01-28T03:29:07.486Z,101943.95
2018-01-28T03:31:34.090Z,101952.24
2018-01-28T03:34:00.376Z,101955.32
2018-01-28T03:36:26.824Z,101958.80
2018-01-28T03:38:53.461Z,101962.30
2018-01-28T03:41:19.681Z,101964.48
2018-01-28T03:43:46.234Z,101958.37
2018-01-28T03:46:12.457Z,101951.38
2018-01-28T03:48:38.894Z,101963.19
2018-01-28T03:51:05.120Z,101952.69
2018-01-28T03:53:31.963Z,101962.72
2018-01-28T03:55:58.145Z,101973.20
2018-01-28T03:58:24.356Z,101976.72
2018-01-28T04:00:50.611Z,101986.31
2018-01-28T04:03:17.082Z,101982.80
2018-01-28T04:05:43.369Z,101970.59
2018-01-28T04:08:09.552Z,101984.56
2018-01-28T04:10:35.742Z,101997.23
2018-01-28T04:13:02.444Z,102006.39
2018-01-28T04:15:28.613Z,102000.28
2018-01-28T04:17:54.796Z,102000.28
2018-01-28T04:20:21.028Z,102006.41
2018-01-28T04:22:47.230Z,101996.36
2018-01-28T04:25:13.538Z,102017.32
2018-01-28T04:27:40.131Z,102015.12
2018-01-28T04:30:06.619Z,102013.81
2018-01-28T04:32:32.809Z,102016.45
2018-01-28T04:34:59.526Z,102007.28
2018-01-28T04:37:25.730Z,101995.04
2018-01-28T04:39:51.926Z,102002.02
2018-01-28T04:42:18.674Z,102005.53
2018-01-28T04:44:44.975Z,102017.31
2018-01-28T04:47:11.182Z,102025.61
2018-01-28T04:49:37.670Z,102033.47
2018-01-28T04:52:04.208Z,102033.04
2018-01-28T04:54:30.489Z,102036.08
2018-01-28T04:56:56.730Z,102038.30
2018-01-28T04:59:23.300Z,102047.01
2018-01-28T05:01:50.940Z,102038.70
2018-01-28T05:04:17.203Z,102043.52
2018-01-28T05:06:43.717Z,102045.26
2018-01-28T05:09:09.979Z,102046.59
2018-01-28T05:11:36.239Z,102050.95
2018-01-28T05:14:02.483Z,102044.39
2018-01-28T05:16:28.795Z,102043.50
2018-01-28T05:18:55.025Z,102061.41
2018-01-28T05:21:21.297Z,102074.11
2018-01-28T05:23:47.576Z,102077.14
2018-01-28T05:26:13.865Z,102077.57
2018-01-28T05:28:40.106Z,102078.91
2018-01-28T05:31:06.296Z,102081.49
2018-01-28T05:33:32.489Z,102079.31
2018-01-28T05:35:59.078Z,102079.75
2018-01-28T05:38:25.611Z,102073.22
2018-01-28T05:40:51.840Z,102086.75
2018-01-28T05:43:18.153Z,102085.44
2018-01-28T05:45:44.371Z,102094.18
2018-01-28T05:48:10.550Z,102092.45
2018-01-28T05:50:36.790Z,102105.11
2018-01-28T05:53:03.060Z,102110.34
2018-01-28T05:55:29.300Z,102105.53
2018-01-28T05:57:55.544Z,102097.23
2018-01-28T06:00:21.762Z,102101.17
2018-01-28T06:02:48.056Z,102106.42
2018-01-28T06:05:14.264Z,102103.36
2018-01-28T06:07:40.458Z,102105.55
2018-01-28T06:10:06.700Z,102116.47
2018-01-28T06:12:32.865Z,102120.84
2018-01-28T06:14:59.097Z,102128.27
2018-01-28T06:17:25.671Z,102119.10
2018-01-28T06:19:51.865Z,102122.14
2018-01-28T06:22:18.331Z,102121.70
2018-01-28T06:24:44.581Z,102113.41
2018-01-28T06:27:10.810Z,102112.08
2018-01-28T06:29:37.077Z,102111.67
2018-01-28T06:32:03.347Z,102122.58
2018-01-28T06:34:29.528Z,102123.02
2018-01-28T06:36:55.811Z,102142.67
2018-01-28T06:39:22.333Z,102150.97
2018-01-28T06:41:48.489Z,102156.66
2018-01-28T06:44:14.811Z,102165.37
2018-01-28T06:46:41.333Z,102172.37
2018-01-28T06:49:07.551Z,102182.41
2018-01-28T06:51:34.101Z,102189.41
2018-01-28T06:54:00.450Z,102190.73
2018-01-28T06:56:26.673Z,102179.36
2018-01-28T06:58:52.894Z,102169.75
2018-01-28T07:01:19.392Z,102167.58
2018-01-28T07:03:45.853Z,102181.55
2018-01-28T07:06:12.427Z,102165.80
2018-01-28T07:08:38.656Z,102179.35
2018-01-28T07:11:04.860Z,102182.41
2018-01-28T07:13:31.060Z,102178.49
2018-01-28T07:15:57.687Z,102171.94
2018-01-28T07:18:23.895Z,102164.08
2018-01-28T07:20:50.118Z,102168.89
2018-01-28T07:23:16.316Z,102167.58
2018-01-28T07:25:42.484Z,102173.23
2018-01-28T07:28:09.115Z,102168.87
2018-01-28T07:30:35.346Z,102168.89
2018-01-28T07:33:01.539Z,102185.05
2018-01-28T07:35:28.345Z,102192.91
2018-01-28T07:37:54.526Z,102200.77
2018-01-28T07:40:20.748Z,102210.80
2018-01-28T07:42:46.960Z,102201.20
2018-01-28T07:45:13.467Z,102200.32
2018-01-28T07:47:39.641Z,102198.59
2018-01-28T07:50:05.882Z,102220.44
2018-01-28T07:52:32.361Z,102222.61
2018-01-28T07:54:58.551Z,102226.55
2018-01-28T07:57:24.826Z,102236.60
2018-01-28T07:59:51.074Z,102225.67
2018-01-28T08:02:17.625Z,102225.23
2018-01-28T08:04:43.863Z,102210.81
2018-01-28T08:07:10.207Z,102214.73
2018-01-28T08:09:37.412Z,102197.70
2018-01-28T08:15:02.866Z,102204.27
2018-01-28T08:17:29.126Z,102209.09
2018-01-28T08:19:55.438Z,102217.83
2018-01-28T08:22:21.709Z,102210.39
2018-01-28T08:24:47.935Z,102211.27
2018-01-28T08:27:24.175Z,102210.81
2018-01-28T08:29:50.443Z,102216.93
2018-01-28T08:32:16.689Z,102221.73
2018-01-28T08:34:42.902Z,102213.01
2018-01-28T08:37:09.114Z,102223.92
2018-01-28T08:39:35.749Z,102210.84
2018-01-28T08:42:01.963Z,102217.43
2018-01-28T08:44:28.217Z,102223.97
2018-01-28T08:46:54.464Z,102223.92
2018-01-28T08:49:20.678Z,102230.05
2018-01-28T08:51:47.278Z,102217.36
2018-01-28T08:54:13.505Z,102195.08
2018-01-28T08:56:40.068Z,102197.30
2018-01-28T08:59:06.310Z,102210.41
2018-01-28T09:01:32.821Z,102225.72
2018-01-28T09:03:59.050Z,102229.20
2018-01-28T09:06:25.305Z,102223.53
2018-01-28T09:08:51.510Z,102223.97
2018-01-28T09:11:17.738Z,102219.16
2018-01-28T09:13:43.990Z,102220.02
2018-01-28T09:16:10.210Z,102229.22
2018-01-28T09:18:36.425Z,102233.13
2018-01-28T09:21:02.963Z,102237.08
2018-01-28T09:23:29.593Z,102241.89
2018-01-28T09:25:55.817Z,102255.88
2018-01-28T09:28:22.071Z,102262.86
2018-01-28T09:30:48.269Z,102267.69
2018-01-28T09:33:20.604Z,102269.84
2018-01-28T09:35:47.077Z,102274.22
2018-01-28T09:38:13.513Z,102267.67
2018-01-28T09:40:40.046Z,102255.88
2018-01-28T09:43:06.295Z,102260.70
2018-01-28T09:45:32.509Z,102247.14
2018-01-28T09:47:58.733Z,102238.39
2018-01-28T09:50:25.225Z,102246.70
2018-01-28T09:52:51.460Z,102242.30
2018-01-28T09:55:17.633Z,102256.75
2018-01-28T09:57:44.157Z,102265.50
2018-01-28T10:00:10.330Z,102276.41
2018-01-28T10:02:36.530Z,102287.36
2018-01-28T10:05:02.828Z,102298.73
2018-01-28T10:07:29.114Z,102300.47
2018-01-28T10:09:55.339Z,102285.58
2018-01-28T10:12:21.571Z,102286.45
2018-01-28T10:14:47.776Z,102290.41
2018-01-28T10:17:14.036Z,102307.02
2018-01-28T10:19:40.258Z,102315.34
2018-01-28T10:22:06.446Z,102321.44
2018-01-28T10:24:32.707Z,102310.53
2018-01-28T10:26:58.990Z,102305.27
2018-01-28T10:29:25.542Z,102296.52
2018-01-28T10:31:51.794Z,102288.21
2018-01-28T10:34:17.984Z,102305.28
2018-01-28T10:36:44.210Z,102310.95
2018-01-28T10:39:10.495Z,102321.00
2018-01-28T10:41:36.701Z,102320.56
2018-01-28T10:44:02.894Z,102313.56
2018-01-28T10:46:29.236Z,102303.52
2018-01-28T10:48:55.523Z,102297.41
2018-01-28T10:51:21.998Z,102298.25
2018-01-28T10:53:48.307Z,102296.08
2018-01-28T10:56:14.518Z,102304.41
2018-01-28T10:58:40.701Z,102316.64
2018-01-28T11:01:07.225Z,102325.39
2018-01-28T11:03:33.480Z,102309.66
2018-01-28T11:05:59.784Z,102283.84
2018-01-28T11:08:26.315Z,102273.34
2018-01-28T11:10:52.851Z,102293.04
2018-01-28T11:13:19.791Z,102300.89
2018-01-28T11:15:46.029Z,102296.53
2018-01-28T11:18:12.236Z,102279.47
2018-01-28T11:20:38.497Z,102275.55
2018-01-28T11:23:04.988Z,102276.83
2018-01-28T11:25:31.195Z,102286.45
2018-01-28T11:27:57.416Z,102299.17
2018-01-28T11:30:23.650Z,102301.34
2018-01-28T11:32:49.945Z,102292.14
2018-01-28T11:35:16.237Z,102281.20
2018-01-28T11:37:42.452Z,102294.77
2018-01-28T11:40:08.703Z,102307.02
2018-01-28T11:42:34.981Z,102311.39
2018-01-28T11:45:01.176Z,102300.89
2018-01-28T11:47:27.352Z,102301.33
2018-01-28T11:49:53.929Z,102310.53
2018-01-28T11:52:20.120Z,102306.14
2018-01-28T11:54:46.605Z,102301.77
2018-01-28T11:57:13.135Z,102313.59
2018-01-28T11:59:39.375Z,102313.13
2018-01-28T12:02:05.589Z,102307.44
2018-01-28T12:04:31.834Z,102303.52
2018-01-28T12:06:58.352Z,102313.58
2018-01-28T12:09:24.589Z,102312.70
2018-01-28T12:11:50.824Z,102320.56
2018-01-28T12:14:17.339Z,102309.64
2018-01-28T12:16:43.611Z,102321.88
2018-01-28T12:19:09.779Z,102321.03
2018-01-28T12:21:35.989Z,102326.27
2018-01-28T12:24:02.236Z,102319.71
2018-01-28T12:26:28.872Z,102329.32
2018-01-28T12:28:55.077Z,102315.33
2018-01-28T12:31:21.334Z,102318.81
2018-01-28T12:33:47.962Z,102306.58
2018-01-28T12:36:14.166Z,102303.53
2018-01-28T12:38:40.381Z,102304.38
2018-01-28T12:41:06.628Z,102307.02
2018-01-28T12:43:32.913Z,102295.23
2018-01-28T12:45:59.069Z,102276.84
2018-01-28T12:48:25.400Z,102273.78
2018-01-28T12:50:51.891Z,102273.36
2018-01-28T12:53:18.424Z,102285.14
2018-01-28T12:55:44.718Z,102285.59
2018-01-28T12:58:10.975Z,102263.72
2018-01-28T13:00:37.178Z,102261.97
2018-01-28T13:03:03.400Z,102270.72
2018-01-28T13:05:29.599Z,102275.11
2018-01-28T13:07:56.511Z,102275.99
2018-01-28T13:10:22.703Z,102272.49
2018-01-28T13:12:48.887Z,102269.41
2018-01-28T13:15:15.473Z,102272.94
2018-01-28T13:17:41.694Z,102270.75
2018-01-28T13:20:07.878Z,102280.77
2018-01-28T13:22:34.409Z,102295.64
2018-01-28T13:25:01.245Z,102289.08
2018-01-28T13:27:27.457Z,102291.72
2018-01-28T13:29:53.647Z,102293.47
2018-01-28T13:32:19.899Z,102285.59
2018-01-28T13:34:46.118Z,102288.67
2018-01-28T13:37:12.332Z,102282.09
2018-01-28T13:39:38.613Z,102280.36
2018-01-28T13:42:04.816Z,102272.93
2018-01-28T13:44:31.082Z,102275.98
2018-01-28T13:46:57.648Z,102284.28
2018-01-28T13:49:23.861Z,102279.49
2018-01-28T13:51:50.078Z,102270.30
2018-01-28T13:54:16.360Z,102251.93
2018-01-28T13:56:42.549Z,102265.05
2018-01-28T13:59:08.764Z,102270.74
2018-01-28T14:01:35.004Z,102267.69
2018-01-28T14:04:01.498Z,102261.55
2018-01-28T14:06:27.725Z,102261.56
2018-01-28T14:08:53.976Z,102258.49
2018-01-28T14:11:20.171Z,102271.16
2018-01-28T14:13:46.371Z,102273.36
2018-01-28T14:16:12.645Z,102279.48
2018-01-28T14:18:38.895Z,102278.61
2018-01-28T14:21:05.103Z,102266.36
2018-01-28T14:23:31.632Z,102261.57
2018-01-28T14:25:58.213Z,102278.61
2018-01-28T14:28:24.451Z,102283.84
2018-01-28T14:30:50.710Z,102283.83
2018-01-28T14:33:17.121Z,102275.55
2018-01-28T14:35:43.325Z,102273.34
2018-01-28T14:38:09.517Z,102282.11
2018-01-28T14:40:35.779Z,102265.49
2018-01-28T14:43:02.379Z,102266.80
2018-01-28T14:45:28.644Z,102268.55
2018-01-28T14:47:55.136Z,102265.91
2018-01-28T14:50:21.358Z,102264.62
2018-01-28T14:52:47.592Z,102262.86
2018-01-28T14:55:13.845Z,102263.31
2018-01-28T14:57:40.079Z,102252.36
2018-01-28T15:00:06.362Z,102256.30
2018-01-28T15:02:32.618Z,102257.63
2018-01-28T15:04:58.820Z,102252.36
2018-01-28T15:07:25.048Z,102246.25
2018-01-28T15:09:51.254Z,102250.63
2018-01-28T15:12:17.457Z,102244.53
2018-01-28T15:14:43.709Z,102240.56
2018-01-28T15:17:10.181Z,102239.70
2018-01-28T15:19:36.362Z,102230.96
2018-01-28T15:22:02.691Z,102232.27
2018-01-28T15:24:28.908Z,102219.59
2018-01-28T15:26:55.095Z,102210.42
2018-01-28T15:29:21.319Z,102211.73
2018-01-28T15:31:47.558Z,102216.52
2018-01-28T15:34:13.831Z,102209.55
2018-01-28T15:36:40.002Z,102216.97
2018-01-28T15:39:06.215Z,102223.09
2018-01-28T15:41:32.983Z,102209.54
2018-01-28T15:43:59.173Z,102208.25
2018-01-28T15:46:25.405Z,102203.88
2018-01-28T15:48:51.971Z,102199.05
2018-01-28T15:51:18.203Z,102197.73
2018-01-28T15:53:44.441Z,102196.00
2018-01-28T15:56:10.708Z,102184.20
2018-01-28T15:58:36.923Z,102180.70
2018-01-28T16:01:03.129Z,102176.32
2018-01-28T16:03:29.645Z,102169.34
2018-01-28T16:05:55.895Z,102166.30
2018-01-28T16:08:22.171Z,102161.05
2018-01-28T16:10:48.381Z,102167.16
2018-01-28T16:13:14.867Z,102159.72
2018-01-28T16:15:41.120Z,102164.11
2018-01-28T16:18:07.299Z,102161.05
2018-01-28T16:20:33.496Z,102164.98
2018-01-28T16:23:00.090Z,102149.67
2018-01-28T16:25:26.300Z,102154.93
2018-01-28T16:27:52.575Z,102158.84
2018-01-28T16:30:19.075Z,102156.69
2018-01-28T16:32:45.612Z,102156.22
2018-01-28T16:35:12.166Z,102149.69
2018-01-28T16:37:38.361Z,102153.62
2018-01-28T16:40:04.568Z,102148.35
2018-01-28T16:42:30.799Z,102151.42
2018-01-28T16:44:57.375Z,102146.19
2018-01-28T16:47:23.669Z,102146.59
2018-01-28T16:49:49.860Z,102135.70
2018-01-28T16:52:16.077Z,102139.20
2018-01-28T16:54:42.328Z,102139.63
2018-01-28T16:57:08.555Z,102143.98
2018-01-28T16:59:34.752Z,102144.00
2018-01-28T17:02:01.083Z,102136.58
2018-01-28T17:04:27.270Z,102139.19
2018-01-28T17:06:53.838Z,102130.45
2018-01-28T17:09:20.060Z,102141.36
2018-01-28T17:11:46.272Z,102130.02
2018-01-28T17:14:12.595Z,102126.95
2018-01-28T17:16:38.826Z,102131.33
2018-01-28T17:19:05.033Z,102125.63
2018-01-28T17:21:31.236Z,102131.76
2018-01-28T17:23:58.150Z,102130.44
2018-01-28T17:26:24.360Z,102133.51
2018-01-28T17:28:50.637Z,102135.25
2018-01-28T17:31:17.161Z,102128.25
2018-01-28T17:33:43.463Z,102132.20
2018-01-28T17:36:09.705Z,102129.58
2018-01-28T17:38:35.978Z,102131.33
2018-01-28T17:41:02.580Z,102131.76
2018-01-28T17:43:28.874Z,102132.20
2018-01-28T17:45:55.105Z,102124.75
2018-01-28T17:48:21.322Z,102126.94
2018-01-28T17:50:47.530Z,102135.23
2018-01-28T17:53:13.779Z,102142.69
2018-01-28T17:55:40.242Z,102136.58
2018-01-28T17:58:06.439Z,102125.63
2018-01-28T18:00:32.682Z,102120.41
2018-01-28T18:02:58.875Z,102124.31
2018-01-28T18:05:25.127Z,102123.89
2018-01-28T18:07:51.639Z,102128.25
2018-01-28T18:10:17.846Z,102125.19
2018-01-28T18:12:44.035Z,102119.08
2018-01-28T18:15:10.327Z,102117.33
2018-01-28T18:17:36.560Z,102117.33
2018-01-28T18:20:02.781Z,102125.66
2018-01-28T18:22:29.358Z,102115.16
2018-01-28T18:24:55.640Z,102120.39
2018-01-28T18:27:21.866Z,102121.28
2018-01-28T18:29:48.188Z,102123.00
2018-01-28T18:32:14.375Z,102123.00
2018-01-28T18:34:40.916Z,102127.39
2018-01-28T18:37:07.507Z,102129.57
2018-01-28T18:39:33.790Z,102123.91
2018-01-28T18:42:00.017Z,102126.52
2018-01-28T18:44:26.263Z,102126.95
2018-01-28T18:46:52.458Z,102132.64
2018-01-28T18:49:18.747Z,102120.83
2018-01-28T18:51:44.947Z,102118.20
2018-01-28T18:54:11.439Z,102126.50
2018-01-28T18:56:38.056Z,102129.14
2018-01-28T18:59:04.262Z,102126.52
2018-01-28T19:01:30.445Z,102127.38
2018-01-28T19:03:56.703Z,102121.28
2018-01-28T19:06:22.891Z,102127.38
2018-01-28T19:08:49.341Z,102125.20
2018-01-28T19:11:15.872Z,102130.44
2018-01-28T19:13:42.078Z,102125.64
2018-01-28T19:16:08.636Z,102118.22
2018-01-28T19:18:34.946Z,102121.70
2018-01-28T19:21:01.159Z,102119.09
2018-01-28T19:23:27.451Z,102123.02
2018-01-28T19:25:53.770Z,102123.47
2018-01-28T19:28:20.003Z,102126.95
2018-01-28T19:30:46.232Z,102119.97
2018-01-28T19:33:12.424Z,102119.97
2018-01-28T19:35:38.643Z,102122.58
2018-01-28T19:40:36.661Z,102126.53
2018-01-28T19:43:02.904Z,102125.63
2018-01-28T19:45:29.113Z,102124.31
2018-01-28T19:47:55.363Z,102119.95
2018-01-28T19:50:21.539Z,102124.33
2018-01-28T19:52:47.725Z,102133.51
2018-01-28T19:55:13.965Z,102130.02
2018-01-28T19:57:40.146Z,102140.94
2018-01-28T20:00:06.342Z,102132.63
2018-01-28T20:02:32.572Z,102138.31
2018-01-28T20:04:58.768Z,102135.69
2018-01-28T20:07:24.946Z,102142.69
2018-01-28T20:09:51.154Z,102135.27
2018-01-28T20:12:17.421Z,102146.16
2018-01-28T20:14:43.646Z,102147.05
2018-01-28T20:17:09.867Z,102146.19
2018-01-28T20:19:36.116Z,102145.74
2018-01-28T20:22:02.293Z,102143.10
2018-01-28T20:24:28.755Z,102145.30
2018-01-28T20:26:55.078Z,102133.05
2018-01-28T20:29:21.327Z,102126.95
2018-01-28T20:31:47.520Z,102141.36
2018-01-28T20:34:13.762Z,102139.19
2018-01-28T20:36:39.971Z,102134.81
2018-01-28T20:39:06.230Z,102147.94
2018-01-28T20:41:32.504Z,102138.31
2018-01-28T20:43:58.715Z,102140.51
2018-01-28T20:46:25.526Z,102136.11
2018-01-28T20:48:51.728Z,102140.49
2018-01-28T20:51:17.930Z,102142.27
2018-01-28T20:53:44.514Z,102145.31
2018-01-28T20:56:10.740Z,102148.36
2018-01-28T20:58:37.287Z,102147.94
2018-01-28T21:01:03.914Z,102151.86
2018-01-28T21:03:30.113Z,102154.93
2018-01-28T21:05:56.301Z,102143.55
2018-01-28T21:08:22.862Z,102154.92
2018-01-28T21:10:49.039Z,102153.61
2018-01-28T21:13:15.571Z,102151.85
2018-01-28T21:15:41.796Z,102148.80
2018-01-28T21:18:08.068Z,102162.36
2018-01-28T21:20:34.289Z,102145.75
2018-01-28T21:23:00.546Z,102154.92
2018-01-28T21:25:26.768Z,102152.30
2018-01-28T21:27:52.965Z,102148.80
2018-01-28T21:30:19.481Z,102151.86
2018-01-28T21:32:45.651Z,102148.80
2018-01-28T21:35:11.853Z,102149.22
2018-01-28T21:37:38.030Z,102149.66
2018-01-28T21:40:04.257Z,102144.88
2018-01-28T21:42:30.453Z,102148.78
2018-01-28T21:44:56.630Z,102151.84
2018-01-28T21:47:23.482Z,102150.98
2018-01-28T21:49:49.668Z,102144.42
2018-01-28T21:52:15.836Z,102143.55
2018-01-28T21:54:42.364Z,102138.73
2018-01-28T21:57:08.621Z,102135.25
2018-01-28T21:59:35.199Z,102138.73
2018-01-28T22:02:01.678Z,102141.81
2018-01-28T22:04:27.883Z,102135.27
2018-01-28T22:06:54.103Z,102151.44
2018-01-28T22:09:22.280Z,102143.11
2018-01-28T22:11:48.512Z,102151.84
2018-01-28T22:14:14.958Z,102149.68
2018-01-28T22:16:41.497Z,102153.16
2018-01-28T22:19:07.705Z,102140.48
2018-01-28T22:21:33.867Z,102131.31
2018-01-28T22:24:00.078Z,102140.06
2018-01-28T22:26:26.252Z,102135.26
2018-01-28T22:28:53.152Z,102143.13
2018-01-28T22:31:19.356Z,102141.80
2018-01-28T22:33:45.566Z,102143.55
2018-01-28T22:36:11.804Z,102152.73
2018-01-28T22:38:37.993Z,102142.24
2018-01-28T22:41:04.502Z,102137.02
2018-01-28T22:43:30.805Z,102137.44
2018-01-28T22:45:57.258Z,102141.36
2018-01-28T22:48:23.449Z,102136.11
2018-01-28T22:50:49.686Z,102133.06
2018-01-28T22:53:15.921Z,102129.13
2018-01-28T22:55:42.488Z,102127.40
2018-01-28T22:58:09.021Z,102140.48
2018-01-28T23:00:35.203Z,102139.63
2018-01-28T23:03:01.775Z,102146.60
2018-01-28T23:05:27.968Z,102142.69
2018-01-28T23:07:54.539Z,102137.87
2018-01-28T23:10:20.774Z,102129.16
2018-01-28T23:12:46.962Z,102145.30
2018-01-28T23:15:13.160Z,102143.98
2018-01-28T23:17:39.407Z,102141.36
2018-01-28T23:20:05.631Z,102145.31
2018-01-28T23:22:31.852Z,102136.57
2018-01-28T23:24:58.073Z,102140.93
2018-01-28T23:27:24.565Z,102140.51
2018-01-28T23:29:50.806Z,102140.94
2018-01-28T23:32:17.329Z,102137.45
2018-01-28T23:34:43.557Z,102138.75
2018-01-28T23:37:09.821Z,102143.98
2018-01-28T23:39:36.140Z,102147.49
2018-01-28T23:42:02.324Z,102150.54
2018-01-28T23:44:28.783Z,102156.69
2018-01-28T23:46:55.058Z,102156.22
2018-01-28T23:49:21.291Z,102162.35
2018-01-28T23:51:47.498Z,102143.57
2018-01-28T23:54:13.764Z,102150.54
2018-01-28T23:56:40.031Z,102144.42
2018-01-28T23:59:06.221Z,102154.03
